Station: Milingimbi  

  Atmospheric Gas Attenuation - ITU Rec 676-11   ----------------- dB/100km -----------------
Date Time Temp RH % AH g/m3 Dew Point Wind Direction Speed kph Gust kph Barometer mB Rainfall Since 9am 24GHz 47GHz 76GHz 122GHz 134GHz 241GHz
08/05 12:00 31.2 58 18.77 22.2 20 30 1010.6 0 39.9 36.7 70.0 185.3 203.4 707.3
08/05 11:50 31.4 56 18.31 21.8 26 30 1010.8 0 38.9 35.8 67.9 179.6 196.5 683.3
08/05 11:40 32 54 18.24 21.8 20 30 1010.9 0 38.7 35.5 67.1 177.5 194.0 674.7
08/05 11:30 31.9 54 18.14 21.7 19 32 1011.1 0 38.5 35.4 66.8 176.6 193.0 670.9
08/05 11:20 31.3 57 18.54 21.8 15 22 1011.2 0 39.4 36.3 69.0 182.5 200.0 695.5
08/05 11:10 30.7 61 19.21 22.3 19 28 1011.3 0 40.8 37.7 72.4 191.7 211.1 734.0
08/05 11:00 31 58 18.57 22 17 30 1011.4 0 39.5 36.5 69.4 183.6 201.3 699.7
08/05 10:50 30.9 61 19.42 22.5 15 24 1011.6 0 41.2 38.0 73.2 193.7 213.6 742.7
08/05 10:40 30.8 61 19.32 22.4 19 28 1011.6 0 41.0 37.9 72.8 192.8 212.4 738.7
08/05 10:30 30.7 61 19.21 22.3 15 28 1011.7 0 40.8 37.7 72.5 191.7 211.2 734.2
08/05 10:20 29.7 65 19.4 22.4 15 19 1011.9 0 41.3 38.5 74.3 196.5 216.8 753.5
08/05 10:10 29.7 65 19.4 22.4 19 26 1011.9 0 41.3 38.5 74.3 196.5 216.8 753.5
08/05 10:00 28.7 65 18.37 21.5 22 32 1012 0 39.3 37.1 70.6 186.9 204.6 711.2
08/05 09:50 28.9 65 18.57 21.7 15 19 1012 0 39.7 37.4 71.3 188.7 207.0 719.3
08/05 09:40 28.3 67 18.52 21.6 22 30 1012.1 0 39.6 37.6 71.7 189.6 207.9 722.5
08/05 09:30 28.6 66 18.55 21.6 19 33 1012.1 0 39.6 37.5 71.5 189.3 207.5 721.2
08/05 09:20 28.2 68 18.7 21.7 17 20 1012 0 40.0 37.9 72.6 192.0 210.8 732.6
08/05 09:10 27.7 70 18.73 21.7 17 22 1012.1 0 40.1 38.2 73.2 193.6 212.7 738.9
08/05 09:00 27.4 72 18.95 21.9 19 26 1012.2 0 40.6 38.8 74.5 197.1 216.8 753.3
08/05 08:50 26.7 73 18.48 21.5 19 22 1012.2 0 39.7 38.2 73.0 193.2 211.8 735.8
08/05 08:40 26.3 75 18.57 21.5 11 13 1012.3 0 39.9 38.6 73.8 195.3 214.3 744.4
08/05 08:30 25.9 76 18.4 21.3 13 22 1012.2 0 39.6 38.5 73.4 194.2 212.8 739.4
08/05 08:20 25.2 78 18.16 21.1 17 20 1012.1 0 39.2 38.3 73.0 193.1 211.2 733.5
08/05 08:10 24.6 81 18.23 21.1 15 15 1012 0 39.4 38.7 73.9 195.4 214.0 743.0
08/05 08:00 24.2 82 18.04 20.9 13 17 1011.8 0 39.0 38.5 73.4 194.1 212.2 736.8
08/05 07:50 23.6 84 17.86 20.7 15 19 1011.8 0 38.7 38.5 73.1 193.4 211.1 733.0
08/05 07:40 23.2 86 17.88 20.7 13 13 1011.8 0 38.8 38.7 73.6 194.6 212.6 738.0
08/05 07:30 22.9 88 17.98 20.8 11 15 1011.8 0 39.0 39.0 74.4 196.7 215.0 746.3
08/05 07:20 22.5 90 17.98 20.8 9 11 1011.7 0 39.1 39.2 74.8 197.7 216.1 750.2
08/05 07:10 22.2 91 17.86 20.7 7 9 1011.6 0 38.8 39.1 74.5 197.0 215.1 746.7
08/05 07:00 21.9 92 17.75 20.5 7 11 1011.6 0 38.6 39.1 74.2 196.3 214.2 743.6
08/05 06:50 21.8 92 17.65 20.4 7 9 1011.5 0 38.4 38.9 73.9 195.3 213.0 739.1
08/05 06:40 21.8 92 17.65 20.4 9 11 1011.3 0 38.4 38.9 73.8 195.3 212.9 739.0
08/05 06:30 21.7 92 17.55 20.3 9 11 1011.2 0 38.2 38.7 73.5 194.2 211.6 734.5
08/05 06:20 21.7 92 17.55 20.3 7 9 1011.3 0 38.2 38.7 73.5 194.3 211.6 734.6
08/05 06:10 21.7 92 17.55 20.3 7 7 1011.3 0 38.2 38.7 73.5 194.3 211.6 734.6
08/05 06:00 21.7 92 17.55 20.3 7 9 1011.2 0 38.2 38.7 73.5 194.2 211.6 734.5
08/05 05:50 21.8 91 17.46 20.3 6 7 1011.1 0 38.0 38.5 72.9 192.8 209.9 728.7
08/05 05:40 21.9 91 17.56 20.4 6 7 1011.1 0 38.2 38.7 73.3 193.8 211.2 733.1
08/05 05:30 22 90 17.47 20.3 6 9 1011 0 38.0 38.4 72.8 192.4 209.5 727.2
08/05 05:20 22.1 90 17.57 20.4 7 9 1010.9 0 38.2 38.6 73.1 193.4 210.8 731.6
08/05 05:10 22.1 90 17.57 20.4 9 9 1010.9 0 38.2 38.6 73.1 193.4 210.8 731.6
08/05 05:00 22.2 89 17.47 20.3 7 9 1011 0 38.0 38.4 72.6 191.9 208.9 725.3
08/05 04:50 22.3 89 17.57 20.4 7 9 1010.9 0 38.2 38.5 73.0 192.9 210.2 729.6
08/05 04:40 22.3 89 17.57 20.4 9 11 1010.9 0 38.2 38.5 73.0 192.9 210.2 729.6
08/05 04:30 22.4 89 17.67 20.5 7 11 1010.8 0 38.4 38.6 73.3 193.9 211.4 734.0
08/05 04:20 22.5 88 17.58 20.4 7 9 1010.8 0 38.2 38.4 72.8 192.5 209.8 728.2
08/05 04:10 22.6 88 17.68 20.5 7 7 1010.9 0 38.4 38.6 73.2 193.5 211.0 732.6
08/05 04:00 22.7 87 17.58 20.4 9 13 1010.9 0 38.2 38.3 72.6 192.0 209.2 726.3
08/05 03:50 22.8 87 17.68 20.5 9 11 1010.9 0 38.4 38.5 73.0 193.0 210.5 730.7
08/05 03:40 22.8 87 17.68 20.5 9 9 1011 0 38.4 38.5 73.0 193.0 210.5 730.8
08/05 03:30 22.8 87 17.68 20.5 11 13 1011.1 0 38.4 38.5 73.0 193.1 210.5 730.8
08/05 03:20 22.8 86 17.47 20.3 9 11 1011.1 0 37.9 38.1 72.0 190.4 207.3 719.6
08/05 03:10 23 85 17.47 20.3 11 11 1011.3 0 37.9 38.0 71.8 190.0 206.8 717.8
08/05 03:00 23.1 85 17.57 20.4 9 13 1011.3 0 38.1 38.1 72.2 190.9 208.0 722.2
08/05 02:50 23.1 85 17.57 20.4 9 13 1011.4 0 38.1 38.1 72.2 191.0 208.0 722.2
08/05 02:40 23.1 84 17.36 20.2 9 11 1011.4 0 37.7 37.8 71.2 188.4 204.8 711.1
08/05 02:30 23.2 84 17.46 20.3 9 13 1011.4 0 37.9 37.9 71.6 189.3 206.1 715.4
08/05 02:20 23.2 84 17.46 20.3 13 13 1011.4 0 37.9 37.9 71.6 189.3 206.1 715.4
08/05 02:10 23.4 83 17.45 20.3 9 11 1011.5 0 37.8 37.8 71.4 188.7 205.4 713.1
08/05 02:00 23.5 82 17.34 20.2 11 15 1011.5 0 37.6 37.5 70.8 187.1 203.4 706.3
08/05 01:50 23.5 81 17.13 20 9 11 1011.6 0 37.1 37.2 69.8 184.6 200.3 695.4
08/05 01:40 23.5 81 17.13 20 9 11 1011.6 0 37.1 37.2 69.8 184.6 200.3 695.4
08/05 01:30 23.6 81 17.23 20.1 9 15 1011.7 0 37.3 37.3 70.2 185.6 201.5 699.7
08/05 01:20 23.7 81 17.32 20.2 11 13 1011.8 0 37.5 37.4 70.5 186.4 202.6 703.6
08/05 01:10 23.7 81 17.32 20.2 11 13 1011.9 0 37.5 37.4 70.5 186.5 202.7 703.6
08/05 01:00 23.8 80 17.21 20.1 11 15 1012 0 37.3 37.2 69.9 184.9 200.8 697.0
08/05 00:50 23.9 79 17.09 20 11 11 1012 0 37.0 36.9 69.3 183.2 198.7 689.8
08/05 00:40 24 79 17.19 20.1 11 13 1012.1 0 37.2 37.1 69.7 184.2 199.9 694.2
08/05 00:30 24.1 79 17.28 20.2 11 17 1012.3 0 37.4 37.2 70.0 185.1 201.0 698.0
08/05 00:20 24.3 78 17.26 20.2 13 15 1012.3 0 37.3 37.1 69.7 184.3 200.2 695.2
08/05 00:10 24.4 78 17.36 20.3 11 13 1012.5 0 37.5 37.2 70.1 185.3 201.5 699.5
08/05 00:00 24.4 78 17.36 20.3 13 20 1012.6 0 37.5 37.2 70.1 185.3 201.5 699.6
07/05 23:50 24.5 78 17.46 20.4 11 13 1012.7 0 37.7 37.4 70.5 186.3 202.7 703.9
07/05 23:40 24.6 78 17.56 20.5 15 19 1012.7 0 37.9 37.5 70.8 187.3 203.9 708.2
07/05 23:30 24.7 78 17.65 20.6 11 17 1012.7 0 38.1 37.6 71.2 188.2 205.0 711.9
07/05 23:20 24.8 78 17.75 20.7 9 11 1012.8 0 38.3 37.8 71.5 189.1 206.3 716.3
07/05 23:10 24.9 77 17.63 20.6 11 13 1012.8 0 38.1 37.5 70.9 187.4 204.2 709.1
07/05 23:00 25 78 17.96 20.9 11 17 1012.8 0 38.8 38.1 72.3 191.2 208.9 725.3
07/05 22:50 25.1 77 17.82 20.8 11 13 1012.8 0 38.4 37.8 71.6 189.3 206.5 717.1
07/05 22:40 25.2 76 17.69 20.7 11 15 1012.9 0 38.2 37.5 70.9 187.4 204.3 709.5
07/05 22:30 25.3 76 17.79 20.8 15 20 1012.9 0 38.4 37.6 71.3 188.4 205.5 713.7
07/05 22:20 25.4 76 17.89 20.9 15 17 1013 0 38.6 37.8 71.6 189.4 206.7 718.0
07/05 22:10 25.6 75 17.86 20.8 15 26 1012.9 0 38.5 37.6 71.3 188.5 205.7 714.5
07/05 22:00 25.7 75 17.96 20.9 17 24 1012.9 0 38.7 37.8 71.7 189.5 206.9 718.8
07/05 21:50 25.8 74 17.82 20.8 17 20 1012.9 0 38.4 37.5 70.9 187.5 204.6 710.6
07/05 21:40 25.9 74 17.92 20.9 15 19 1012.9 0 38.6 37.6 71.3 188.5 205.8 714.8
07/05 21:30 25.9 75 18.16 21.1 15 22 1012.9 0 39.1 38.0 72.4 191.4 209.4 727.2
07/05 21:20 26 74 18.02 21 13 19 1012.9 0 38.8 37.7 71.6 189.5 207.0 719.0
07/05 21:10 26.2 73 17.97 21 15 17 1012.9 0 38.7 37.6 71.2 188.4 205.7 714.6
07/05 21:00 26.4 72 17.92 20.9 13 20 1012.8 0 38.5 37.4 70.8 187.3 204.4 710.1
07/05 20:50 26.5 72 18.02 21 13 17 1012.8 0 38.7 37.5 71.2 188.2 205.6 714.3
07/05 20:40 26.6 71 17.87 20.9 17 24 1012.7 0 38.4 37.2 70.4 186.2 203.1 705.6
07/05 20:30 26.7 71 17.97 21 13 19 1012.6 0 38.6 37.3 70.7 187.1 204.3 709.8
07/05 20:20 26.9 69 17.66 20.7 15 20 1012.5 0 37.9 36.7 69.2 182.9 199.2 692.1
07/05 20:10 27.1 69 17.86 20.9 13 17 1012.3 0 38.3 36.9 69.9 184.8 201.6 700.3
07/05 20:00 27.2 68 17.7 20.8 15 22 1012.2 0 38.0 36.6 69.1 182.6 199.0 691.3
07/05 19:50 27.2 69 17.96 21.2 13 17 1012.1 0 38.5 37.1 70.2 185.7 202.7 704.4
07/05 19:40 27.4 68 17.89 21 15 19 1011.9 0 38.4 36.8 69.7 184.4 201.2 698.9
07/05 19:30 27.5 68 17.99 21.1 17 20 1011.7 0 38.6 37.0 70.0 185.3 202.3 703.0

Last Refresh: 08-May-2026 12:08:31

Bureau of Meteorology